Odenville, Alabama
Current Conditions -  °F | °C
As of 9:53 PM on Wednesday 26 Nov 2014 (Local Time) from KBHM Reporting Station
Scattered Clouds Scattered Clouds  
Wind Chill: 43°   Ceiling: Unl
Heat Index: 48°   Visibility: 10mi
Dew Point: 27°   Wind: 13mph
Humidity: 44%   Direction: 300°WNW
Pressure: 30.16"   Gusts: NA
Location:  33.68°N, 86.4°W
Report Text: KBHM 270353Z 30011KT 10SM SCT085 09/M03 A3016 RMK AO2 SLP211 T00891028
Loading
Personal Weather Stations






























Interactive Weather Map New forecast layout! Learn more

10-Day Weather Forecast

Advertisements
Track Severe Weather on mobile